createdAt,value
2022-12-11T00:02:19.499Z,46.62
2022-12-11T00:04:46.477Z,46.28
2022-12-11T00:07:13.139Z,46.22
2022-12-11T00:09:41.053Z,48.59
2022-12-11T00:12:12.028Z,47.34
2022-12-11T00:14:38.626Z,48.10
2022-12-11T00:17:05.293Z,48.52
2022-12-11T00:19:32.001Z,48.20
2022-12-11T00:21:58.672Z,47.33
2022-12-11T00:24:25.717Z,48.25
2022-12-11T00:26:52.383Z,49.02
2022-12-11T00:29:19.136Z,49.67
2022-12-11T00:31:45.802Z,48.70
2022-12-11T00:34:12.407Z,49.11
2022-12-11T00:36:39.265Z,48.42
2022-12-11T00:39:06.054Z,47.14
2022-12-11T00:41:32.819Z,47.71
2022-12-11T00:43:59.440Z,47.13
2022-12-11T00:46:26.125Z,47.55
2022-12-11T00:48:52.840Z,47.17
2022-12-11T00:51:19.582Z,47.13
2022-12-11T00:53:46.249Z,47.30
2022-12-11T00:56:15.050Z,46.71
2022-12-11T00:58:41.654Z,46.95
2022-12-11T01:01:13.347Z,47.22
2022-12-11T01:03:40.054Z,47.19
2022-12-11T01:06:06.919Z,46.95
2022-12-11T01:08:38.377Z,48.08
2022-12-11T01:11:07.605Z,47.48
2022-12-11T01:13:34.445Z,47.55
2022-12-11T01:16:12.481Z,47.60
2022-12-11T01:18:39.292Z,47.62
2022-12-11T01:21:10.542Z,48.24
2022-12-11T01:23:37.272Z,47.82
2022-12-11T01:26:08.639Z,48.74
2022-12-11T01:28:35.244Z,48.60
2022-12-11T01:31:01.999Z,49.86
2022-12-11T01:33:28.699Z,49.05
2022-12-11T01:35:55.559Z,48.11
2022-12-11T01:38:22.678Z,49.34
2022-12-11T01:40:50.093Z,49.22
2022-12-11T01:43:16.805Z,50.22
2022-12-11T01:45:44.444Z,48.25
2022-12-11T01:48:21.424Z,48.40
2022-12-11T01:50:52.586Z,48.95
2022-12-11T01:53:31.285Z,48.94
2022-12-11T01:55:57.909Z,49.03
2022-12-11T01:58:27.504Z,50.97
2022-12-11T02:00:54.178Z,50.50
2022-12-11T02:03:20.855Z,49.30
2022-12-11T02:05:47.542Z,49.56
2022-12-11T02:08:14.296Z,50.99
2022-12-11T02:11:04.540Z,50.24
2022-12-11T02:13:37.189Z,51.97
2022-12-11T02:16:19.823Z,51.77
2022-12-11T02:18:46.371Z,51.11
2022-12-11T02:21:12.892Z,51.48
2022-12-11T02:24:04.165Z,51.57
2022-12-11T02:26:36.757Z,51.86
2022-12-11T02:29:06.633Z,51.37
2022-12-11T02:31:40.655Z,51.30
2022-12-11T02:34:14.190Z,51.80
2022-12-11T02:36:43.538Z,52.25
2022-12-11T02:39:11.097Z,52.26
2022-12-11T02:41:37.725Z,52.77
2022-12-11T02:44:04.385Z,52.93
2022-12-11T02:46:31.036Z,52.65
2022-12-11T02:48:57.692Z,52.93
2022-12-11T02:51:27.141Z,52.15
2022-12-11T02:53:54.888Z,52.73
2022-12-11T02:56:24.518Z,53.23
2022-12-11T02:58:58.736Z,52.66
2022-12-11T03:01:26.268Z,53.06
2022-12-11T03:03:54.071Z,52.17
2022-12-11T03:06:22.049Z,51.74
2022-12-11T03:08:48.709Z,51.81
2022-12-11T03:11:15.352Z,52.40
2022-12-11T03:13:41.989Z,51.46
2022-12-11T03:16:14.275Z,50.37
2022-12-11T03:19:02.348Z,50.58
2022-12-11T03:21:43.009Z,50.86
2022-12-11T03:24:19.604Z,50.91
2022-12-11T03:26:56.573Z,52.28
2022-12-11T03:29:26.139Z,50.78
2022-12-11T03:32:09.805Z,51.28
2022-12-11T03:34:48.892Z,51.77
2022-12-11T03:37:15.582Z,51.42
2022-12-11T03:39:44.755Z,51.87
2022-12-11T03:42:12.485Z,51.38
2022-12-11T03:44:39.263Z,51.60
2022-12-11T03:47:07.086Z,51.73
2022-12-11T03:49:36.020Z,51.52
2022-12-11T03:52:03.396Z,50.74
2022-12-11T03:54:30.023Z,51.14
2022-12-11T03:56:58.190Z,51.24
2022-12-11T03:59:24.867Z,51.06
2022-12-11T04:01:51.625Z,51.66
2022-12-11T04:04:18.318Z,50.80
2022-12-11T04:06:45.010Z,50.65
2022-12-11T04:09:11.664Z,51.21
2022-12-11T04:11:38.339Z,51.68
2022-12-11T04:14:09.865Z,51.50
2022-12-11T04:16:36.510Z,51.21
2022-12-11T04:19:03.660Z,50.35
2022-12-11T04:21:32.859Z,50.16
2022-12-11T04:24:01.763Z,49.85
2022-12-11T04:26:28.397Z,49.22
2022-12-11T04:28:55.110Z,49.62
2022-12-11T04:31:21.867Z,50.02
2022-12-11T04:33:48.518Z,51.73
2022-12-11T04:36:15.128Z,51.18
2022-12-11T04:38:41.802Z,50.47
2022-12-11T04:41:10.989Z,48.94
2022-12-11T04:43:37.644Z,49.49
2022-12-11T04:46:08.760Z,49.30
2022-12-11T04:48:35.978Z,48.89
2022-12-11T04:51:02.602Z,48.37
2022-12-11T04:53:29.258Z,48.64
2022-12-11T04:55:56.143Z,49.30
2022-12-11T04:58:23.270Z,49.36
2022-12-11T05:00:49.879Z,48.97
2022-12-11T05:03:16.492Z,51.43
2022-12-11T05:05:52.964Z,50.49
2022-12-11T05:08:20.140Z,49.45
2022-12-11T05:10:56.048Z,50.40
2022-12-11T05:13:22.722Z,50.67
2022-12-11T05:15:49.365Z,50.52
2022-12-11T05:18:16.072Z,51.09
2022-12-11T05:20:42.708Z,48.54
2022-12-11T05:23:09.310Z,49.10
2022-12-11T05:25:35.995Z,49.63
2022-12-11T05:28:02.660Z,49.30
2022-12-11T05:30:29.400Z,50.67
2022-12-11T05:32:56.184Z,48.68
2022-12-11T05:35:22.801Z,47.99
2022-12-11T05:37:50.328Z,49.59
2022-12-11T05:40:17.159Z,48.84
2022-12-11T05:42:43.753Z,50.24
2022-12-11T05:45:10.925Z,48.85
2022-12-11T05:47:37.725Z,49.83
2022-12-11T05:50:04.441Z,49.24
2022-12-11T05:52:31.625Z,49.69
2022-12-11T05:54:58.241Z,50.86
2022-12-11T05:57:24.933Z,51.65
2022-12-11T05:59:51.636Z,51.28
2022-12-11T06:02:18.595Z,50.48
2022-12-11T06:04:45.290Z,50.48
2022-12-11T06:07:14.237Z,50.60
2022-12-11T06:09:40.842Z,50.07
2022-12-11T06:12:07.491Z,50.37
2022-12-11T06:14:34.192Z,50.71
2022-12-11T06:17:00.841Z,49.96
2022-12-11T06:19:29.739Z,49.79
2022-12-11T06:21:58.567Z,49.46
2022-12-11T06:24:25.236Z,49.72
2022-12-11T06:26:51.858Z,50.19
2022-12-11T06:29:18.455Z,50.14
2022-12-11T06:31:45.084Z,50.32
2022-12-11T06:34:12.348Z,50.22
2022-12-11T06:36:38.997Z,50.85
2022-12-11T06:39:05.683Z,50.64
2022-12-11T06:41:32.306Z,50.53
2022-12-11T06:43:58.920Z,50.03
2022-12-11T06:46:25.590Z,51.19
2022-12-11T06:48:52.283Z,49.65
2022-12-11T06:51:20.659Z,49.67
2022-12-11T06:53:54.253Z,49.18
2022-12-11T06:56:20.920Z,49.97
2022-12-11T06:58:47.724Z,50.13
2022-12-11T07:01:24.774Z,49.86
2022-12-11T07:03:55.235Z,49.87
2022-12-11T07:06:21.911Z,50.02
2022-12-11T07:08:48.566Z,51.20
2022-12-11T07:11:16.225Z,51.05
2022-12-11T07:13:43.023Z,51.77
2022-12-11T07:16:10.274Z,52.05
2022-12-11T07:18:40.860Z,52.29
2022-12-11T07:21:07.698Z,52.48
2022-12-11T07:23:34.553Z,52.43
2022-12-11T07:26:08.307Z,52.43
2022-12-11T07:28:34.968Z,51.73
2022-12-11T07:31:08.243Z,52.08
2022-12-11T07:33:34.906Z,52.88
2022-12-11T07:36:05.714Z,52.16
2022-12-11T07:38:32.345Z,52.67
2022-12-11T07:41:04.875Z,53.02
2022-12-11T07:43:31.781Z,53.36
2022-12-11T07:46:05.149Z,51.85
2022-12-11T07:48:31.884Z,51.74
2022-12-11T07:51:14.481Z,52.46
2022-12-11T07:53:44.931Z,52.16
2022-12-11T07:56:11.785Z,51.90
2022-12-11T07:58:38.459Z,51.08
2022-12-11T08:01:06.372Z,50.78
2022-12-11T08:03:32.997Z,50.81
2022-12-11T08:05:59.696Z,51.37
2022-12-11T08:08:26.372Z,51.00
2022-12-11T08:10:53.049Z,50.62
2022-12-11T08:13:19.699Z,50.51
2022-12-11T08:15:46.387Z,49.95
2022-12-11T08:18:13.742Z,48.57
2022-12-11T08:20:40.443Z,48.02
2022-12-11T08:23:09.182Z,47.51
2022-12-11T08:25:35.826Z,47.43
2022-12-11T08:28:02.555Z,47.98
2022-12-11T08:30:29.219Z,47.32
2022-12-11T08:32:55.938Z,46.46
2022-12-11T08:35:22.814Z,47.63
2022-12-11T08:37:49.460Z,47.28
2022-12-11T08:40:16.137Z,46.01
2022-12-11T08:42:42.869Z,46.73
2022-12-11T08:45:10.242Z,46.88
2022-12-11T08:47:37.010Z,46.33
2022-12-11T08:50:04.204Z,46.37
2022-12-11T08:52:30.858Z,46.37
2022-12-11T08:54:57.962Z,46.33
2022-12-11T08:57:24.571Z,46.01
2022-12-11T08:59:51.182Z,45.55
2022-12-11T09:02:17.872Z,46.14
2022-12-11T09:04:44.644Z,46.17
2022-12-11T09:07:11.263Z,46.22
2022-12-11T09:09:38.128Z,46.71
2022-12-11T09:12:05.008Z,46.39
2022-12-11T09:14:32.153Z,46.42
2022-12-11T09:16:58.860Z,45.90
2022-12-11T09:19:30.619Z,45.52
2022-12-11T09:21:58.809Z,46.07
2022-12-11T09:24:25.640Z,47.06
2022-12-11T09:26:52.246Z,46.55
2022-12-11T09:29:18.885Z,44.87
2022-12-11T09:31:45.509Z,44.44
2022-12-11T09:34:12.828Z,44.55
2022-12-11T09:36:40.217Z,43.89
2022-12-11T09:39:07.601Z,44.31
2022-12-11T09:41:39.057Z,43.91
2022-12-11T09:44:11.164Z,43.57
2022-12-11T09:46:37.939Z,42.91
2022-12-11T09:49:04.999Z,42.70
2022-12-11T09:51:43.528Z,42.88
2022-12-11T09:54:11.261Z,42.43
2022-12-11T09:56:56.514Z,43.68
2022-12-11T09:59:28.844Z,44.01
2022-12-11T10:02:22.484Z,42.76
2022-12-11T10:04:55.047Z,42.49
2022-12-11T10:07:41.962Z,42.08
2022-12-11T10:10:32.715Z,41.97
2022-12-11T10:13:07.657Z,41.89
2022-12-11T10:15:39.452Z,41.10
2022-12-11T10:18:09.855Z,40.77
2022-12-11T10:20:36.663Z,40.48
2022-12-11T10:23:03.759Z,40.81
2022-12-11T10:25:35.659Z,40.02
2022-12-11T10:28:15.593Z,39.55
2022-12-11T10:31:00.539Z,39.95
2022-12-11T10:33:33.735Z,40.05
2022-12-11T10:36:00.333Z,39.59
2022-12-11T10:38:31.267Z,39.66
2022-12-11T10:41:02.664Z,39.07
2022-12-11T10:43:34.024Z,39.24
2022-12-11T10:46:00.735Z,38.26
2022-12-11T10:48:27.460Z,37.83
2022-12-11T10:51:01.787Z,37.30
2022-12-11T10:53:28.520Z,37.46
2022-12-11T10:55:55.165Z,38.05
2022-12-11T10:58:23.316Z,37.64
2022-12-11T11:01:20.124Z,37.14
2022-12-11T11:04:15.421Z,37.13
2022-12-11T11:06:42.332Z,36.62
2022-12-11T11:09:31.158Z,37.08
2022-12-11T11:11:57.750Z,36.08
2022-12-11T11:14:24.362Z,38.44
2022-12-11T11:16:52.249Z,36.59
2022-12-11T11:19:30.574Z,35.90
2022-12-11T11:22:01.634Z,36.07
2022-12-11T11:24:40.794Z,37.61
2022-12-11T11:27:28.219Z,36.67
2022-12-11T11:29:55.699Z,36.91
2022-12-11T11:32:38.375Z,35.20
2022-12-11T11:35:10.857Z,36.94
2022-12-11T11:37:38.181Z,37.60
2022-12-11T11:40:18.556Z,36.76
2022-12-11T11:43:03.932Z,37.73
2022-12-11T11:45:38.092Z,38.65
2022-12-11T11:48:40.678Z,37.76
2022-12-11T11:51:13.930Z,38.17
2022-12-11T11:53:40.580Z,38.17
2022-12-11T11:56:16.471Z,38.54
2022-12-11T11:58:50.424Z,36.78
2022-12-11T12:01:18.821Z,37.93
2022-12-11T12:03:45.706Z,37.15
2022-12-11T12:06:18.818Z,37.79
2022-12-11T12:09:14.581Z,38.07
2022-12-11T12:11:46.734Z,37.34
2022-12-11T12:14:52.202Z,36.06
2022-12-11T12:17:55.744Z,36.16
2022-12-11T12:20:37.354Z,36.07
2022-12-11T12:23:22.611Z,36.24
2022-12-11T12:26:17.554Z,35.64
2022-12-11T12:28:50.187Z,36.12
2022-12-11T12:31:39.765Z,35.17
2022-12-11T12:34:40.373Z,34.51
2022-12-11T12:37:36.414Z,35.67
2022-12-11T12:40:08.811Z,35.92
2022-12-11T12:42:56.274Z,35.80
2022-12-11T12:45:32.059Z,35.98
2022-12-11T12:47:58.728Z,37.94
2022-12-11T12:50:26.950Z,37.49
2022-12-11T12:52:54.569Z,38.34
2022-12-11T12:55:30.144Z,39.06
2022-12-11T12:57:58.571Z,37.79
2022-12-11T13:00:42.336Z,38.02
2022-12-11T13:03:30.470Z,37.50
2022-12-11T13:06:01.250Z,37.98
2022-12-11T13:08:30.863Z,38.37
2022-12-11T13:11:08.625Z,38.04
2022-12-11T13:13:38.113Z,38.87
2022-12-11T13:16:16.964Z,38.96
2022-12-11T13:18:44.996Z,38.80
2022-12-11T13:21:26.335Z,38.57
2022-12-11T13:23:53.062Z,38.97
2022-12-11T13:26:32.773Z,38.77
2022-12-11T13:28:59.433Z,39.12
2022-12-11T13:31:38.867Z,40.20
2022-12-11T13:34:23.641Z,39.61
2022-12-11T13:36:51.872Z,39.36
2022-12-11T13:39:26.165Z,39.28
2022-12-11T13:41:55.075Z,38.83
2022-12-11T13:44:27.438Z,38.71
2022-12-11T13:46:55.346Z,39.36
2022-12-11T13:49:27.716Z,39.83
2022-12-11T13:51:57.016Z,40.01
2022-12-11T13:54:23.725Z,39.90
2022-12-11T13:57:00.350Z,39.24
2022-12-11T13:59:33.746Z,40.15
2022-12-11T14:02:04.109Z,40.36
2022-12-11T14:04:30.861Z,41.09
2022-12-11T14:06:57.586Z,42.96
2022-12-11T14:09:25.199Z,41.11
2022-12-11T14:11:56.661Z,41.59
2022-12-11T14:14:31.222Z,41.72
2022-12-11T14:16:57.988Z,41.31
2022-12-11T14:19:24.798Z,41.54
2022-12-11T14:21:59.142Z,41.04
2022-12-11T14:24:25.807Z,41.63
2022-12-11T14:26:52.975Z,41.77
2022-12-11T14:29:31.514Z,42.24
2022-12-11T14:32:03.111Z,42.46
2022-12-11T14:34:34.952Z,42.05
2022-12-11T14:37:02.519Z,42.22
2022-12-11T14:39:38.436Z,42.29
2022-12-11T14:42:09.061Z,41.49
2022-12-11T14:44:46.268Z,41.90
2022-12-11T14:47:24.095Z,42.48
2022-12-11T14:50:03.564Z,43.66
2022-12-11T14:52:36.309Z,43.35
2022-12-11T14:55:08.261Z,43.79
2022-12-11T14:57:34.925Z,42.91
2022-12-11T15:00:01.590Z,42.55
2022-12-11T15:02:32.926Z,42.79
2022-12-11T15:05:16.988Z,42.20
2022-12-11T15:07:53.566Z,43.57
2022-12-11T15:10:29.463Z,43.27
2022-12-11T15:12:56.103Z,43.37
2022-12-11T15:15:22.748Z,43.80
2022-12-11T15:17:52.705Z,43.06
2022-12-11T15:20:29.431Z,43.54
2022-12-11T15:22:58.020Z,43.90
2022-12-11T15:25:26.947Z,44.69
2022-12-11T15:27:58.223Z,42.74
2022-12-11T15:30:26.798Z,44.51
2022-12-11T15:33:17.326Z,44.22
2022-12-11T15:35:56.426Z,43.58
2022-12-11T15:38:33.640Z,43.82
2022-12-11T15:41:00.447Z,43.60
2022-12-11T15:43:27.574Z,44.94
2022-12-11T15:45:54.264Z,44.47
2022-12-11T15:48:20.930Z,44.62
2022-12-11T15:50:47.566Z,44.26
2022-12-11T15:53:14.222Z,44.84
2022-12-11T15:55:40.940Z,44.23
2022-12-11T15:58:08.850Z,44.16
2022-12-11T16:00:35.497Z,43.54
2022-12-11T16:03:02.179Z,43.62
2022-12-11T16:05:28.830Z,43.85
2022-12-11T16:07:55.480Z,43.41
2022-12-11T16:10:22.180Z,43.30
2022-12-11T16:12:48.797Z,43.19
2022-12-11T16:15:21.637Z,43.52
2022-12-11T16:17:50.003Z,44.05
2022-12-11T16:20:16.661Z,44.91
2022-12-11T16:22:43.302Z,43.82
2022-12-11T16:25:10.275Z,43.75
2022-12-11T16:27:37.138Z,44.71
2022-12-11T16:30:03.910Z,43.85
2022-12-11T16:32:33.628Z,44.78
2022-12-11T16:35:03.947Z,44.47
2022-12-11T16:37:30.546Z,44.28
2022-12-11T16:39:57.149Z,43.84
2022-12-11T16:42:23.790Z,44.56
2022-12-11T16:44:50.545Z,44.58
2022-12-11T16:47:17.264Z,43.71
2022-12-11T16:49:43.916Z,44.11
2022-12-11T16:52:10.524Z,42.93
2022-12-11T16:54:37.294Z,42.56
2022-12-11T16:57:04.013Z,42.49
2022-12-11T16:59:36.645Z,43.10
2022-12-11T17:02:04.060Z,43.15
2022-12-11T17:04:30.715Z,43.92
2022-12-11T17:06:57.487Z,44.43
2022-12-11T17:09:24.186Z,43.54
2022-12-11T17:11:50.879Z,43.51
2022-12-11T17:14:17.575Z,43.93
2022-12-11T17:16:44.222Z,44.50
2022-12-11T17:19:10.865Z,44.57
2022-12-11T17:21:37.543Z,44.21
2022-12-11T17:24:04.257Z,45.81
2022-12-11T17:26:31.260Z,44.38
2022-12-11T17:28:57.911Z,44.58
2022-12-11T17:31:24.630Z,44.51
2022-12-11T17:33:51.384Z,44.44
2022-12-11T17:36:20.277Z,44.49
2022-12-11T17:38:47.268Z,43.38
2022-12-11T17:41:20.039Z,44.03
2022-12-11T17:43:48.373Z,43.88
2022-12-11T17:46:15.089Z,42.75
2022-12-11T17:48:44.303Z,42.65
2022-12-11T17:51:12.531Z,42.40
2022-12-11T17:53:39.183Z,42.01
2022-12-11T17:56:07.528Z,41.96
2022-12-11T17:58:34.210Z,43.08
2022-12-11T18:01:03.528Z,41.56
2022-12-11T18:03:30.209Z,40.95
2022-12-11T18:05:57.117Z,40.45
2022-12-11T18:08:27.240Z,41.42
2022-12-11T18:10:53.959Z,40.69
2022-12-11T18:13:20.866Z,40.54
2022-12-11T18:15:47.604Z,40.88
2022-12-11T18:18:14.344Z,41.77
2022-12-11T18:20:40.943Z,41.48
2022-12-11T18:23:07.559Z,40.15
2022-12-11T18:25:34.250Z,40.95
2022-12-11T18:28:01.079Z,41.46
2022-12-11T18:30:27.710Z,41.14
2022-12-11T18:32:54.398Z,41.77
2022-12-11T18:35:21.121Z,41.84
2022-12-11T18:37:47.775Z,41.12
2022-12-11T18:40:14.441Z,41.57
2022-12-11T18:42:44.310Z,42.40
2022-12-11T18:45:11.377Z,44.11
2022-12-11T18:47:38.164Z,42.87
2022-12-11T18:50:08.042Z,44.75
2022-12-11T18:52:35.191Z,44.54
2022-12-11T18:55:01.912Z,44.27
2022-12-11T18:57:28.603Z,44.90
2022-12-11T18:59:55.233Z,45.19
2022-12-11T19:02:21.977Z,45.35
2022-12-11T19:04:48.717Z,45.04
2022-12-11T19:07:15.403Z,45.90
2022-12-11T19:09:47.616Z,44.66
2022-12-11T19:12:14.805Z,44.65
2022-12-11T19:14:41.972Z,45.08
2022-12-11T19:17:08.635Z,44.70
2022-12-11T19:19:35.382Z,43.99
2022-12-11T19:22:02.028Z,45.09
2022-12-11T19:24:28.752Z,44.45
2022-12-11T19:26:55.424Z,44.62
2022-12-11T19:29:26.856Z,43.78
2022-12-11T19:31:53.885Z,44.42
2022-12-11T19:34:20.594Z,44.72
2022-12-11T19:36:47.276Z,43.38
2022-12-11T19:39:13.937Z,43.29
2022-12-11T19:41:40.649Z,43.15
2022-12-11T19:44:07.445Z,43.52
2022-12-11T19:46:34.308Z,43.77
2022-12-11T19:49:00.997Z,42.93
2022-12-11T19:51:38.232Z,43.25
2022-12-11T19:54:05.997Z,43.55
2022-12-11T19:56:32.898Z,43.69
2022-12-11T19:59:01.153Z,44.12
2022-12-11T20:01:30.560Z,44.28
2022-12-11T20:03:58.733Z,43.72
2022-12-11T20:06:27.530Z,43.79
2022-12-11T20:08:54.237Z,44.14
2022-12-11T20:11:20.971Z,43.68
2022-12-11T20:13:47.814Z,42.72
2022-12-11T20:16:15.628Z,44.16
2022-12-11T20:18:42.356Z,44.41
2022-12-11T20:21:11.421Z,44.76
2022-12-11T20:23:38.051Z,44.48
2022-12-11T20:26:08.023Z,44.57
2022-12-11T20:28:34.627Z,44.35
2022-12-11T20:31:19.733Z,44.10
2022-12-11T20:33:47.025Z,44.22
2022-12-11T20:36:15.800Z,43.31
2022-12-11T20:38:42.813Z,44.27
2022-12-11T20:41:10.280Z,43.55
2022-12-11T20:43:37.376Z,43.14
2022-12-11T20:46:07.941Z,43.64
2022-12-11T20:48:34.598Z,44.63
2022-12-11T20:51:05.399Z,45.79
2022-12-11T20:53:32.076Z,45.75
2022-12-11T20:55:58.696Z,45.14
2022-12-11T20:58:25.363Z,45.60
2022-12-11T21:00:52.705Z,45.55
2022-12-11T21:03:19.437Z,44.68
2022-12-11T21:05:46.065Z,44.33
2022-12-11T21:08:12.841Z,45.10
2022-12-11T21:10:43.750Z,45.33
2022-12-11T21:13:10.456Z,45.85
2022-12-11T21:15:37.942Z,45.29
2022-12-11T21:18:04.979Z,45.45
2022-12-11T21:20:31.735Z,44.54
2022-12-11T21:22:58.333Z,44.94
2022-12-11T21:25:25.266Z,46.22
2022-12-11T21:27:51.889Z,46.29
2022-12-11T21:30:18.525Z,46.08
2022-12-11T21:32:45.205Z,46.25
2022-12-11T21:35:12.474Z,46.93
2022-12-11T21:37:39.390Z,46.56
2022-12-11T21:40:06.564Z,46.71
2022-12-11T21:42:33.208Z,46.53
2022-12-11T21:45:52.311Z,46.25
2022-12-11T21:47:46.489Z,46.48
2022-12-11T21:50:13.118Z,45.72
2022-12-11T21:52:39.742Z,44.93
2022-12-11T21:55:06.741Z,44.81
2022-12-11T21:57:33.411Z,45.24
2022-12-11T22:00:00.056Z,44.89
2022-12-11T22:02:26.855Z,45.20
2022-12-11T22:04:53.520Z,44.79
2022-12-11T22:07:20.146Z,44.40
2022-12-11T22:09:46.790Z,43.70
2022-12-11T22:12:31.525Z,44.01
2022-12-11T22:14:58.133Z,44.83
2022-12-11T22:17:24.788Z,43.55
2022-12-11T22:19:51.470Z,45.01
2022-12-11T22:22:18.084Z,44.51
2022-12-11T22:24:44.737Z,44.93
2022-12-11T22:27:11.386Z,44.06
2022-12-11T22:29:37.974Z,44.20
2022-12-11T22:32:04.626Z,43.54
2022-12-11T22:34:31.222Z,43.66
2022-12-11T22:36:57.811Z,42.98
2022-12-11T22:39:24.466Z,42.73
2022-12-11T22:41:51.115Z,43.26
2022-12-11T22:44:19.252Z,43.73
2022-12-11T22:46:49.867Z,43.58
2022-12-11T22:49:17.912Z,44.10
2022-12-11T22:51:44.678Z,43.55
2022-12-11T22:54:11.278Z,43.66
2022-12-11T22:56:38.333Z,43.38
2022-12-11T22:59:04.927Z,43.06
2022-12-11T23:01:31.557Z,42.31
2022-12-11T23:03:58.237Z,43.29
2022-12-11T23:06:24.906Z,43.05
2022-12-11T23:08:52.909Z,44.42
2022-12-11T23:11:24.933Z,44.50
2022-12-11T23:13:52.035Z,44.56
2022-12-11T23:16:18.846Z,43.97
2022-12-11T23:18:45.488Z,44.61
2022-12-11T23:21:12.203Z,43.09
2022-12-11T23:23:38.800Z,43.50
2022-12-11T23:26:05.833Z,44.29
2022-12-11T23:28:32.565Z,44.21
2022-12-11T23:30:59.415Z,43.39
2022-12-11T23:33:26.215Z,43.04
2022-12-11T23:35:52.967Z,43.14
2022-12-11T23:38:19.629Z,43.73
2022-12-11T23:40:46.284Z,42.82
2022-12-11T23:43:12.945Z,42.93
2022-12-11T23:45:39.544Z,43.63
2022-12-11T23:48:06.177Z,43.55
2022-12-11T23:50:32.909Z,43.06
2022-12-11T23:52:59.590Z,43.20
2022-12-11T23:55:26.199Z,43.72
2022-12-11T23:57:53.349Z,42.85
